createdAt,value
2022-07-25T00:00:43.081Z,82.20
2022-07-25T00:03:10.829Z,82.60
2022-07-25T00:05:38.365Z,82.70
2022-07-25T00:08:06.148Z,82.70
2022-07-25T00:10:33.187Z,84.40
2022-07-25T00:13:00.199Z,84.40
2022-07-25T00:15:27.609Z,85.90
2022-07-25T00:17:54.646Z,85.80
2022-07-25T00:20:21.689Z,85.90
2022-07-25T00:22:48.870Z,86.20
2022-07-25T00:25:16.092Z,87.10
2022-07-25T00:27:43.080Z,87.60
2022-07-25T00:30:10.893Z,89.90
2022-07-25T00:32:37.970Z,89.90
2022-07-25T00:35:05.349Z,89.20
2022-07-25T00:37:33.291Z,90.70
2022-07-25T00:40:00.386Z,91.20
2022-07-25T00:42:27.434Z,91.50
2022-07-25T00:44:54.468Z,91.50
2022-07-25T00:47:21.541Z,91.20
2022-07-25T00:49:48.790Z,91.20
2022-07-25T00:52:16.066Z,92.20
2022-07-25T00:54:43.176Z,92.60
2022-07-25T00:57:12.005Z,92.70
2022-07-25T00:59:39.049Z,92.80
2022-07-25T01:02:06.139Z,93.10
2022-07-25T01:04:33.583Z,92.80
2022-07-25T01:07:01.198Z,93.10
2022-07-25T01:09:28.482Z,93.70
2022-07-25T01:11:55.662Z,93.70
2022-07-25T01:14:23.053Z,93.40
2022-07-25T01:16:50.114Z,94.00
2022-07-25T01:19:17.576Z,93.90
2022-07-25T01:21:44.739Z,94.60
2022-07-25T01:24:13.027Z,94.70
2022-07-25T01:26:40.008Z,95.10
2022-07-25T01:29:07.155Z,95.00
2022-07-25T01:31:34.450Z,95.80
2022-07-25T01:34:01.529Z,95.10
2022-07-25T01:36:28.728Z,95.70
2022-07-25T01:38:55.939Z,95.30
2022-07-25T01:41:22.992Z,96.00
2022-07-25T01:43:50.148Z,95.90
2022-07-25T01:46:17.395Z,95.80
2022-07-25T01:48:44.615Z,96.40
2022-07-25T01:51:11.723Z,96.40
2022-07-25T01:53:38.906Z,96.90
2022-07-25T01:56:06.885Z,97.20
2022-07-25T01:58:35.996Z,97.10
2022-07-25T02:01:03.080Z,97.70
2022-07-25T02:03:30.153Z,97.70
2022-07-25T02:06:05.150Z,98.50
2022-07-25T02:08:32.460Z,99.20
2022-07-25T02:11:00.292Z,99.10
2022-07-25T02:13:27.792Z,99.00
2022-07-25T02:15:54.821Z,99.50
2022-07-25T02:18:21.923Z,99.90
2022-07-25T02:20:49.014Z,99.90
2022-07-25T02:23:16.009Z,99.90
2022-07-25T02:25:42.987Z,99.90
2022-07-25T02:28:10.541Z,99.90
2022-07-25T02:30:38.074Z,99.90
2022-07-25T02:33:05.540Z,99.90
2022-07-25T02:35:32.802Z,99.90
2022-07-25T02:37:59.851Z,99.90
2022-07-25T02:40:27.109Z,99.90
2022-07-25T02:42:54.185Z,99.90
2022-07-25T02:45:21.554Z,99.90
2022-07-25T02:47:48.572Z,99.90
2022-07-25T02:50:15.694Z,99.90
2022-07-25T02:52:43.459Z,99.90
2022-07-25T02:55:11.663Z,99.90
2022-07-25T02:57:38.791Z,99.90
2022-07-25T03:00:07.610Z,99.90
2022-07-25T03:02:34.769Z,99.90
2022-07-25T03:05:01.815Z,99.90
2022-07-25T03:07:29.051Z,99.90
2022-07-25T03:09:56.090Z,99.90
2022-07-25T03:12:23.083Z,99.90
2022-07-25T03:14:50.100Z,99.90
2022-07-25T03:17:17.185Z,99.90
2022-07-25T03:19:44.426Z,99.90
2022-07-25T03:22:11.457Z,99.90
2022-07-25T03:24:39.063Z,99.90
2022-07-25T03:27:06.098Z,99.90
2022-07-25T03:29:33.211Z,99.90
2022-07-25T03:32:00.727Z,99.90
2022-07-25T03:34:27.975Z,99.90
2022-07-25T03:36:55.005Z,99.90
2022-07-25T03:39:22.512Z,99.90
2022-07-25T03:41:49.583Z,99.90
2022-07-25T03:44:16.557Z,99.90
2022-07-25T03:46:43.547Z,99.90
2022-07-25T03:49:10.664Z,99.90
2022-07-25T03:51:37.904Z,99.90
2022-07-25T03:54:06.404Z,99.90
2022-07-25T03:56:43.903Z,99.90
2022-07-25T03:59:13.418Z,99.90
2022-07-25T04:01:41.059Z,99.90
2022-07-25T04:04:08.483Z,99.90
2022-07-25T04:06:36.335Z,99.90
2022-07-25T04:09:04.591Z,99.90
2022-07-25T04:11:31.782Z,99.90
2022-07-25T04:13:59.163Z,99.90
2022-07-25T04:16:27.820Z,99.90
2022-07-25T04:18:55.431Z,99.90
2022-07-25T04:21:24.192Z,99.90
2022-07-25T04:23:51.398Z,99.90
2022-07-25T04:26:18.851Z,99.90
2022-07-25T04:28:46.087Z,99.90
2022-07-25T04:31:13.190Z,99.90
2022-07-25T04:33:41.336Z,99.90
2022-07-25T04:36:09.081Z,99.90
2022-07-25T04:38:36.449Z,99.90
2022-07-25T04:41:04.444Z,99.90
2022-07-25T04:43:31.614Z,99.90
2022-07-25T04:45:59.668Z,99.90
2022-07-25T04:48:26.960Z,99.90
2022-07-25T04:50:54.274Z,99.90
2022-07-25T04:53:21.433Z,99.90
2022-07-25T04:55:48.514Z,99.90
2022-07-25T04:58:15.720Z,99.90
2022-07-25T05:00:42.990Z,99.90
2022-07-25T05:03:10.271Z,99.90
2022-07-25T05:05:37.832Z,99.90
2022-07-25T05:08:05.273Z,99.90
2022-07-25T05:10:32.336Z,99.90
2022-07-25T05:12:59.624Z,99.90
2022-07-25T05:15:26.743Z,99.90
2022-07-25T05:17:53.722Z,99.90
2022-07-25T05:20:20.933Z,99.90
2022-07-25T05:22:47.945Z,99.90
2022-07-25T05:25:15.016Z,99.90
2022-07-25T05:27:42.153Z,99.90
2022-07-25T05:30:11.582Z,99.90
2022-07-25T05:32:39.473Z,99.90
2022-07-25T05:35:08.108Z,99.90
2022-07-25T05:37:36.042Z,99.90
2022-07-25T05:40:03.846Z,99.90
2022-07-25T05:42:31.150Z,99.90
2022-07-25T05:44:58.120Z,99.90
2022-07-25T05:47:25.280Z,99.90
2022-07-25T05:49:52.314Z,99.90
2022-07-25T05:52:19.470Z,99.90
2022-07-25T05:54:46.471Z,99.90
2022-07-25T05:57:13.558Z,99.90
2022-07-25T05:59:40.618Z,99.90
2022-07-25T06:02:08.305Z,99.90
2022-07-25T06:04:35.486Z,99.90
2022-07-25T06:07:02.574Z,99.90
2022-07-25T06:09:31.934Z,99.90
2022-07-25T06:12:01.066Z,99.90
2022-07-25T06:14:29.585Z,99.90
2022-07-25T06:16:57.113Z,99.90
2022-07-25T06:19:24.375Z,99.90
2022-07-25T06:21:51.401Z,99.90
2022-07-25T06:24:18.519Z,99.90
2022-07-25T06:26:45.591Z,99.90
2022-07-25T06:29:12.654Z,98.70
2022-07-25T06:31:39.981Z,98.30
2022-07-25T06:34:07.584Z,98.00
2022-07-25T06:36:34.966Z,97.80
2022-07-25T06:39:02.509Z,97.70
2022-07-25T06:41:29.928Z,95.40
2022-07-25T06:43:57.033Z,93.80
2022-07-25T06:46:24.100Z,93.80
2022-07-25T06:48:51.202Z,93.20
2022-07-25T06:51:18.273Z,90.60
2022-07-25T06:53:45.300Z,90.10
2022-07-25T06:56:17.499Z,89.00
2022-07-25T06:58:45.028Z,87.50
2022-07-25T07:01:12.369Z,86.00
2022-07-25T07:03:40.461Z,83.80
2022-07-25T07:06:09.453Z,81.50
2022-07-25T07:08:36.932Z,81.30
2022-07-25T07:11:04.953Z,80.80
2022-07-25T07:13:32.232Z,78.70
2022-07-25T07:15:59.359Z,80.70
2022-07-25T07:18:26.594Z,77.10
2022-07-25T07:20:53.806Z,74.40
2022-07-25T07:23:20.836Z,76.70
2022-07-25T07:25:48.343Z,75.30
2022-07-25T07:28:16.100Z,74.90
2022-07-25T07:31:14.452Z,75.20
2022-07-25T07:33:30.786Z,74.40
2022-07-25T07:35:57.772Z,74.40
2022-07-25T07:38:25.902Z,71.60
2022-07-25T07:40:54.034Z,70.80
2022-07-25T09:48:45.025Z,72.90
2022-07-25T09:51:13.115Z,35.10
2022-07-25T09:53:41.094Z,34.70
2022-07-25T09:56:08.687Z,35.40
2022-07-25T09:58:35.779Z,35.00
2022-07-25T10:01:06.547Z,33.00
2022-07-25T10:03:52.599Z,33.20
2022-07-25T10:06:34.834Z,32.30
2022-07-25T10:09:02.073Z,33.10
2022-07-25T10:11:30.394Z,33.60
2022-07-25T10:13:57.576Z,33.30
2022-07-25T10:16:26.635Z,32.70
2022-07-25T10:18:55.635Z,33.00
2022-07-25T10:21:27.294Z,31.60
2022-07-25T10:24:06.923Z,32.00
2022-07-25T10:26:42.409Z,30.70
2022-07-25T10:29:11.403Z,31.20
2022-07-25T10:31:49.460Z,30.80
2022-07-25T10:34:30.341Z,28.90
2022-07-25T10:36:57.526Z,28.90
2022-07-25T10:39:24.601Z,28.40
2022-07-25T10:42:02.955Z,27.80
2022-07-25T10:44:42.134Z,28.90
2022-07-25T10:47:11.377Z,28.80
2022-07-25T10:50:00.253Z,28.70
2022-07-25T10:52:29.969Z,28.10
2022-07-25T10:55:01.515Z,28.20
2022-07-25T10:57:31.939Z,27.70
2022-07-25T11:00:09.263Z,27.50
2022-07-25T11:02:36.546Z,26.90
2022-07-25T11:05:04.914Z,26.80
2022-07-25T11:07:36.258Z,27.60
2022-07-25T11:10:05.960Z,27.60
2022-07-25T11:12:33.527Z,27.30
2022-07-25T11:15:02.942Z,27.10
2022-07-25T11:17:30.305Z,26.00
2022-07-25T11:20:06.021Z,27.00
2022-07-25T11:22:34.579Z,26.30
2022-07-25T11:25:03.374Z,25.80
2022-07-25T11:27:32.937Z,25.20
2022-07-25T11:30:29.051Z,48.20
2022-07-25T11:32:58.800Z,48.60
2022-07-25T12:47:50.401Z,47.20
2022-07-25T13:24:50.494Z,41.50
2022-07-25T13:27:22.224Z,38.40
2022-07-25T13:32:22.746Z,39.20
2022-07-25T15:13:32.564Z,58.00
2022-07-25T15:16:00.971Z,21.40
2022-07-25T15:18:28.914Z,21.40
2022-07-25T15:28:36.018Z,23.80
2022-07-25T15:33:31.430Z,20.10
2022-07-25T15:35:58.971Z,20.50
2022-07-25T15:38:26.280Z,20.20
2022-07-25T15:40:53.315Z,20.70
2022-07-25T15:43:20.607Z,21.40
2022-07-25T15:45:47.663Z,22.00
2022-07-25T15:48:16.275Z,21.50
2022-07-25T15:53:14.938Z,21.00
2022-07-25T15:55:43.086Z,21.60
2022-07-25T16:00:39.141Z,21.20
2022-07-25T16:08:02.293Z,21.80
2022-07-25T16:10:30.942Z,21.60
2022-07-25T16:12:58.354Z,21.40
2022-07-25T16:15:25.644Z,21.40
2022-07-25T16:18:00.080Z,21.30
2022-07-25T16:20:29.768Z,22.00
2022-07-25T16:22:57.885Z,23.10
2022-07-25T16:25:26.228Z,23.50
2022-07-25T16:27:53.790Z,24.00
2022-07-25T16:30:21.238Z,24.80
2022-07-25T16:32:48.341Z,25.20
2022-07-25T16:35:15.650Z,25.50
2022-07-25T16:37:42.789Z,25.80
2022-07-25T16:50:00.759Z,26.40
2022-07-25T16:52:27.749Z,27.40
2022-07-25T16:54:54.827Z,28.80
2022-07-25T16:57:24.909Z,27.40
2022-07-25T16:59:53.630Z,27.50
2022-07-25T17:02:26.151Z,26.90
2022-07-25T17:04:56.283Z,25.90
2022-07-25T17:07:23.726Z,25.40
2022-07-25T17:09:50.930Z,26.10
2022-07-25T17:12:18.600Z,25.20
2022-07-25T17:14:45.836Z,25.30
2022-07-25T17:17:13.121Z,25.40
2022-07-25T17:19:40.490Z,25.30
2022-07-25T17:22:11.537Z,25.20
2022-07-25T17:24:39.471Z,25.50
2022-07-25T17:27:08.940Z,25.50
2022-07-25T17:29:37.039Z,24.50
2022-07-25T17:32:06.049Z,24.40
2022-07-25T17:34:33.671Z,23.70
2022-07-25T17:37:03.045Z,24.00
2022-07-25T17:39:33.574Z,24.60
2022-07-25T17:42:01.065Z,25.40
2022-07-25T17:44:28.258Z,25.30
2022-07-25T17:46:55.691Z,25.00
2022-07-25T17:49:22.876Z,24.90
2022-07-25T17:51:50.077Z,25.00
2022-07-25T17:54:17.190Z,24.70
2022-07-25T17:56:45.515Z,25.20
2022-07-25T17:59:13.732Z,25.40
2022-07-25T18:01:41.081Z,25.60
2022-07-25T18:04:08.707Z,26.00
2022-07-25T18:06:36.094Z,26.30
2022-07-25T18:09:03.758Z,26.40
2022-07-25T18:11:30.808Z,26.60
2022-07-25T18:13:59.475Z,26.60
2022-07-25T18:16:26.597Z,26.80
2022-07-25T18:21:21.061Z,43.00
2022-07-25T18:23:48.075Z,39.90
2022-07-25T19:06:49.646Z,55.60
2022-07-25T19:09:19.146Z,28.80
2022-07-25T19:11:51.000Z,29.00
2022-07-25T19:14:18.341Z,29.20
2022-07-25T19:16:58.000Z,29.40
2022-07-25T19:19:27.022Z,29.40
2022-07-25T19:21:54.532Z,29.80
2022-07-25T19:24:22.580Z,29.90
2022-07-25T19:26:50.503Z,29.90
2022-07-25T19:29:18.596Z,29.90
2022-07-25T19:31:55.213Z,30.00
2022-07-25T19:34:22.790Z,30.10
2022-07-25T19:36:50.237Z,30.00
2022-07-25T19:39:34.978Z,30.20
2022-07-25T19:42:07.531Z,30.20
2022-07-25T19:44:35.721Z,30.10
2022-07-25T19:47:07.174Z,30.00
2022-07-25T19:49:37.207Z,30.30
2022-07-25T19:52:08.322Z,30.40
2022-07-25T19:54:35.447Z,30.50
2022-07-25T19:57:03.089Z,30.50
2022-07-25T19:59:48.141Z,32.10
2022-07-25T20:02:15.551Z,31.50
2022-07-25T20:04:42.606Z,31.30
2022-07-25T20:07:09.759Z,31.10
2022-07-25T20:09:38.038Z,31.00
2022-07-25T20:12:06.348Z,30.90
2022-07-25T20:14:33.664Z,30.90
2022-07-25T20:17:03.556Z,31.00
2022-07-25T20:19:30.727Z,31.20
2022-07-25T20:22:13.993Z,31.20
2022-07-25T20:24:41.415Z,31.50
2022-07-25T20:27:25.203Z,31.40
2022-07-25T20:29:52.707Z,31.40
2022-07-25T20:32:19.770Z,31.80
2022-07-25T20:34:56.367Z,31.90
2022-07-25T20:37:32.667Z,32.10
2022-07-25T20:40:00.127Z,32.30
2022-07-25T20:42:28.271Z,32.60
2022-07-25T20:44:56.732Z,32.80
2022-07-25T20:47:33.196Z,33.20
2022-07-25T20:50:02.364Z,33.40
2022-07-25T20:52:30.576Z,33.60
2022-07-25T20:54:58.265Z,33.90
2022-07-25T20:57:25.314Z,34.00
2022-07-25T21:00:22.060Z,34.10
2022-07-25T21:02:56.499Z,34.30
2022-07-25T21:05:25.326Z,34.40
2022-07-25T21:07:53.139Z,34.30
2022-07-25T21:10:20.984Z,34.40
2022-07-25T21:12:48.954Z,34.70
2022-07-25T21:15:17.094Z,34.60
2022-07-25T21:17:44.272Z,34.90
2022-07-25T21:20:13.507Z,34.90
2022-07-25T21:22:41.987Z,35.10
2022-07-25T21:25:10.847Z,35.00
2022-07-25T21:27:40.269Z,35.60
2022-07-25T21:30:09.788Z,36.10
2022-07-25T21:32:37.555Z,36.30
2022-07-25T21:35:06.481Z,36.40
2022-07-25T21:37:34.499Z,36.40
2022-07-25T21:40:04.894Z,36.70
2022-07-25T21:42:44.504Z,37.00
2022-07-25T21:45:13.439Z,36.70
2022-07-25T21:47:40.607Z,36.10
2022-07-25T21:50:29.156Z,35.90
2022-07-25T21:53:01.853Z,36.00
2022-07-25T21:55:42.653Z,36.00
2022-07-25T21:58:22.906Z,36.60
2022-07-25T22:00:50.349Z,36.80
2022-07-25T22:03:30.595Z,37.40
2022-07-25T22:05:59.748Z,37.10
2022-07-25T22:08:41.099Z,37.40
2022-07-25T22:11:20.871Z,37.60
2022-07-25T22:13:59.679Z,37.60
2022-07-25T22:16:28.309Z,37.80
2022-07-25T22:18:57.911Z,37.50
2022-07-25T22:21:26.738Z,37.50
2022-07-25T22:24:12.520Z,37.50
2022-07-25T22:26:41.280Z,37.60
2022-07-25T22:29:08.820Z,37.60
2022-07-25T22:31:39.235Z,37.30
2022-07-25T22:34:07.781Z,37.20
2022-07-25T22:36:35.435Z,37.40
2022-07-25T22:39:02.528Z,37.40
2022-07-25T22:41:29.678Z,37.30
2022-07-25T22:43:59.801Z,37.40
2022-07-25T22:46:32.680Z,37.90
2022-07-25T22:49:01.931Z,38.10
2022-07-25T22:51:29.921Z,38.00
2022-07-25T22:54:14.237Z,38.10
2022-07-25T22:56:56.811Z,37.70
2022-07-25T22:59:23.965Z,37.50
2022-07-25T23:02:08.512Z,37.20
2022-07-25T23:04:52.934Z,37.00
2022-07-25T23:07:35.306Z,36.60
2022-07-25T23:10:02.877Z,37.00
2022-07-25T23:12:30.469Z,37.00
2022-07-25T23:14:58.096Z,36.90
2022-07-25T23:17:42.208Z,36.90
2022-07-25T23:20:11.575Z,36.70
2022-07-25T23:22:39.339Z,36.30
2022-07-25T23:25:24.513Z,36.40
2022-07-25T23:27:51.971Z,36.30
2022-07-25T23:30:19.899Z,36.30
2022-07-25T23:32:47.031Z,36.80
2022-07-25T23:35:14.413Z,37.10
2022-07-25T23:37:57.477Z,37.30
2022-07-25T23:40:24.586Z,37.40
2022-07-25T23:42:52.781Z,37.30
2022-07-25T23:45:27.659Z,37.40
2022-07-25T23:47:57.001Z,37.70
2022-07-25T23:50:24.859Z,37.80
2022-07-25T23:53:00.816Z,38.60
2022-07-25T23:55:28.206Z,38.20
2022-07-25T23:57:55.313Z,38.60
